sensor_id;sensor_type;location;lat;lon;timestamp;P1;durP1;ratioP1;P2;durP2;ratioP2
25127;SDS011;13107;51.304;6.866;2023-03-26T00:01:46;22.92;;;3.42;;
25127;SDS011;13107;51.304;6.866;2023-03-26T00:05:59;24.67;;;3.37;;
25127;SDS011;13107;51.304;6.866;2023-03-26T00:10:12;33.10;;;3.83;;
25127;SDS011;13107;51.304;6.866;2023-03-26T00:14:15;23.58;;;3.72;;
25127;SDS011;13107;51.304;6.866;2023-03-26T00:18:18;26.45;;;3.80;;
25127;SDS011;13107;51.304;6.866;2023-03-26T00:22:21;25.50;;;3.35;;
25127;SDS011;13107;51.304;6.866;2023-03-26T00:26:24;23.70;;;4.20;;
25127;SDS011;13107;51.304;6.866;2023-03-26T00:30:26;29.25;;;3.95;;
25127;SDS011;13107;51.304;6.866;2023-03-26T00:34:28;24.37;;;3.03;;
25127;SDS011;13107;51.304;6.866;2023-03-26T00:38:30;28.15;;;3.50;;
25127;SDS011;13107;51.304;6.866;2023-03-26T00:42:33;29.55;;;4.20;;
25127;SDS011;13107;51.304;6.866;2023-03-26T00:46:35;26.42;;;3.28;;
25127;SDS011;13107;51.304;6.866;2023-03-26T00:50:37;20.52;;;2.95;;
25127;SDS011;13107;51.304;6.866;2023-03-26T00:54:39;26.08;;;3.37;;
25127;SDS011;13107;51.304;6.866;2023-03-26T00:58:41;30.10;;;4.25;;
25127;SDS011;13107;51.304;6.866;2023-03-26T01:02:43;25.92;;;3.65;;
25127;SDS011;13107;51.304;6.866;2023-03-26T01:06:45;26.75;;;3.47;;
25127;SDS011;13107;51.304;6.866;2023-03-26T01:10:47;28.05;;;3.60;;
25127;SDS011;13107;51.304;6.866;2023-03-26T01:14:52;27.55;;;3.95;;
25127;SDS011;13107;51.304;6.866;2023-03-26T01:18:56;24.42;;;4.45;;
25127;SDS011;13107;51.304;6.866;2023-03-26T01:23:00;25.20;;;3.50;;
25127;SDS011;13107;51.304;6.866;2023-03-26T01:27:51;29.75;;;4.03;;
25127;SDS011;13107;51.304;6.866;2023-03-26T01:31:40;22.73;;;4.10;;
25127;SDS011;13107;51.304;6.866;2023-03-26T01:44:42;25.98;;;4.10;;
25127;SDS011;13107;51.304;6.866;2023-03-26T01:48:52;27.25;;;3.78;;
25127;SDS011;13107;51.304;6.866;2023-03-26T01:52:55;23.87;;;3.28;;
25127;SDS011;13107;51.304;6.866;2023-03-26T01:57:19;18.65;;;3.53;;
25127;SDS011;13107;51.304;6.866;2023-03-26T02:01:35;25.88;;;3.87;;
25127;SDS011;13107;51.304;6.866;2023-03-26T02:05:51;22.87;;;3.78;;
25127;SDS011;13107;51.304;6.866;2023-03-26T02:10:45;34.22;;;4.20;;
25127;SDS011;13107;51.304;6.866;2023-03-26T02:14:29;25.60;;;3.40;;
25127;SDS011;13107;51.304;6.866;2023-03-26T02:18:31;24.45;;;3.72;;
25127;SDS011;13107;51.304;6.866;2023-03-26T02:22:42;21.40;;;3.62;;
25127;SDS011;13107;51.304;6.866;2023-03-26T02:26:46;23.38;;;3.03;;
25127;SDS011;13107;51.304;6.866;2023-03-26T02:30:47;28.30;;;3.53;;
25127;SDS011;13107;51.304;6.866;2023-03-26T02:34:49;22.87;;;3.60;;
25127;SDS011;13107;51.304;6.866;2023-03-26T02:38:51;25.23;;;3.33;;
25127;SDS011;13107;51.304;6.866;2023-03-26T02:42:54;23.95;;;4.57;;
25127;SDS011;13107;51.304;6.866;2023-03-26T02:46:56;23.48;;;3.50;;
25127;SDS011;13107;51.304;6.866;2023-03-26T02:50:57;19.90;;;3.33;;
25127;SDS011;13107;51.304;6.866;2023-03-26T02:54:59;20.75;;;3.12;;
25127;SDS011;13107;51.304;6.866;2023-03-26T02:59:01;15.55;;;2.78;;
25127;SDS011;13107;51.304;6.866;2023-03-26T03:03:03;12.40;;;2.67;;
25127;SDS011;13107;51.304;6.866;2023-03-26T03:07:05;18.80;;;3.58;;
25127;SDS011;13107;51.304;6.866;2023-03-26T03:11:09;23.95;;;3.22;;
25127;SDS011;13107;51.304;6.866;2023-03-26T03:19:16;20.05;;;2.55;;
25127;SDS011;13107;51.304;6.866;2023-03-26T03:23:18;15.55;;;2.80;;
25127;SDS011;13107;51.304;6.866;2023-03-26T03:27:20;15.82;;;2.85;;
25127;SDS011;13107;51.304;6.866;2023-03-26T03:31:24;19.27;;;3.00;;
25127;SDS011;13107;51.304;6.866;2023-03-26T03:35:27;12.68;;;2.85;;
25127;SDS011;13107;51.304;6.866;2023-03-26T03:39:30;15.20;;;2.30;;
25127;SDS011;13107;51.304;6.866;2023-03-26T03:43:31;22.10;;;3.22;;
25127;SDS011;13107;51.304;6.866;2023-03-26T03:47:33;11.38;;;2.42;;
25127;SDS011;13107;51.304;6.866;2023-03-26T03:51:35;18.87;;;2.70;;
25127;SDS011;13107;51.304;6.866;2023-03-26T03:55:37;17.15;;;2.67;;
25127;SDS011;13107;51.304;6.866;2023-03-26T03:59:42;18.37;;;3.00;;
25127;SDS011;13107;51.304;6.866;2023-03-26T04:03:48;15.18;;;2.70;;
25127;SDS011;13107;51.304;6.866;2023-03-26T04:07:50;14.35;;;2.65;;
25127;SDS011;13107;51.304;6.866;2023-03-26T04:11:52;21.40;;;2.40;;
25127;SDS011;13107;51.304;6.866;2023-03-26T04:15:54;16.48;;;2.85;;
25127;SDS011;13107;51.304;6.866;2023-03-26T04:19:56;14.45;;;3.22;;
25127;SDS011;13107;51.304;6.866;2023-03-26T04:23:58;24.23;;;3.53;;
25127;SDS011;13107;51.304;6.866;2023-03-26T04:28:02;19.62;;;2.58;;
25127;SDS011;13107;51.304;6.866;2023-03-26T04:32:08;15.25;;;3.33;;
25127;SDS011;13107;51.304;6.866;2023-03-26T04:36:24;13.77;;;3.37;;
25127;SDS011;13107;51.304;6.866;2023-03-26T04:40:28;10.23;;;2.80;;
25127;SDS011;13107;51.304;6.866;2023-03-26T04:44:30;14.30;;;2.53;;
25127;SDS011;13107;51.304;6.866;2023-03-26T04:48:35;13.90;;;2.42;;
25127;SDS011;13107;51.304;6.866;2023-03-26T04:52:38;12.88;;;2.50;;
25127;SDS011;13107;51.304;6.866;2023-03-26T04:56:54;19.12;;;2.70;;
25127;SDS011;13107;51.304;6.866;2023-03-26T05:00:59;17.42;;;2.92;;
25127;SDS011;13107;51.304;6.866;2023-03-26T05:05:11;17.60;;;3.60;;
25127;SDS011;13107;51.304;6.866;2023-03-26T05:09:12;15.63;;;4.15;;
25127;SDS011;13107;51.304;6.866;2023-03-26T05:13:15;16.92;;;2.95;;
25127;SDS011;13107;51.304;6.866;2023-03-26T05:17:17;13.18;;;2.80;;
25127;SDS011;13107;51.304;6.866;2023-03-26T05:21:21;17.60;;;3.28;;
25127;SDS011;13107;51.304;6.866;2023-03-26T05:25:23;18.50;;;2.92;;
25127;SDS011;13107;51.304;6.866;2023-03-26T05:29:24;22.48;;;3.05;;
25127;SDS011;13107;51.304;6.866;2023-03-26T05:33:27;16.85;;;3.00;;
25127;SDS011;13107;51.304;6.866;2023-03-26T05:37:29;17.67;;;2.75;;
25127;SDS011;13107;51.304;6.866;2023-03-26T05:41:32;12.52;;;2.35;;
25127;SDS011;13107;51.304;6.866;2023-03-26T05:45:33;17.90;;;3.25;;
25127;SDS011;13107;51.304;6.866;2023-03-26T05:49:35;16.52;;;2.70;;
25127;SDS011;13107;51.304;6.866;2023-03-26T05:53:37;19.55;;;3.25;;
25127;SDS011;13107;51.304;6.866;2023-03-26T05:57:38;18.25;;;2.70;;
25127;SDS011;13107;51.304;6.866;2023-03-26T06:01:40;18.92;;;3.17;;
25127;SDS011;13107;51.304;6.866;2023-03-26T06:05:44;10.98;;;2.35;;
25127;SDS011;13107;51.304;6.866;2023-03-26T06:09:46;12.20;;;2.30;;
25127;SDS011;13107;51.304;6.866;2023-03-26T06:13:48;19.98;;;2.80;;
25127;SDS011;13107;51.304;6.866;2023-03-26T06:17:50;17.75;;;3.33;;
25127;SDS011;13107;51.304;6.866;2023-03-26T06:21:52;19.33;;;3.90;;
25127;SDS011;13107;51.304;6.866;2023-03-26T06:25:53;20.67;;;3.08;;
25127;SDS011;13107;51.304;6.866;2023-03-26T06:29:56;20.15;;;3.03;;
25127;SDS011;13107;51.304;6.866;2023-03-26T06:33:57;21.27;;;3.25;;
25127;SDS011;13107;51.304;6.866;2023-03-26T06:37:59;20.70;;;3.05;;
25127;SDS011;13107;51.304;6.866;2023-03-26T06:42:01;20.27;;;3.20;;
25127;SDS011;13107;51.304;6.866;2023-03-26T06:46:03;19.73;;;3.60;;
25127;SDS011;13107;51.304;6.866;2023-03-26T06:50:05;26.17;;;4.25;;
25127;SDS011;13107;51.304;6.866;2023-03-26T06:54:08;12.60;;;3.35;;
25127;SDS011;13107;51.304;6.866;2023-03-26T06:58:10;22.42;;;3.72;;
25127;SDS011;13107;51.304;6.866;2023-03-26T07:02:12;14.93;;;3.17;;
25127;SDS011;13107;51.304;6.866;2023-03-26T07:06:13;18.05;;;3.20;;
25127;SDS011;13107;51.304;6.866;2023-03-26T07:10:15;17.37;;;3.20;;
25127;SDS011;13107;51.304;6.866;2023-03-26T07:14:17;16.58;;;3.65;;
25127;SDS011;13107;51.304;6.866;2023-03-26T07:18:18;14.48;;;3.80;;
25127;SDS011;13107;51.304;6.866;2023-03-26T07:22:21;14.75;;;2.75;;
25127;SDS011;13107;51.304;6.866;2023-03-26T07:30:38;16.08;;;3.53;;
25127;SDS011;13107;51.304;6.866;2023-03-26T07:39:31;18.58;;;3.30;;
25127;SDS011;13107;51.304;6.866;2023-03-26T07:44:09;13.35;;;3.40;;
25127;SDS011;13107;51.304;6.866;2023-03-26T07:48:38;12.05;;;3.12;;
25127;SDS011;13107;51.304;6.866;2023-03-26T07:52:45;14.13;;;3.17;;
25127;SDS011;13107;51.304;6.866;2023-03-26T07:56:51;16.23;;;2.85;;
25127;SDS011;13107;51.304;6.866;2023-03-26T08:01:07;13.00;;;3.60;;
25127;SDS011;13107;51.304;6.866;2023-03-26T08:05:23;14.15;;;3.25;;
25127;SDS011;13107;51.304;6.866;2023-03-26T08:09:30;8.30;;;2.15;;
25127;SDS011;13107;51.304;6.866;2023-03-26T08:13:48;9.13;;;2.20;;
25127;SDS011;13107;51.304;6.866;2023-03-26T08:18:03;14.50;;;2.33;;
25127;SDS011;13107;51.304;6.866;2023-03-26T08:22:29;9.25;;;1.85;;
25127;SDS011;13107;51.304;6.866;2023-03-26T08:26:35;10.73;;;1.98;;
25127;SDS011;13107;51.304;6.866;2023-03-26T08:30:51;10.48;;;2.47;;
25127;SDS011;13107;51.304;6.866;2023-03-26T08:34:55;9.15;;;2.30;;
25127;SDS011;13107;51.304;6.866;2023-03-26T08:38:57;9.52;;;1.98;;
25127;SDS011;13107;51.304;6.866;2023-03-26T08:56:23;11.27;;;2.75;;
25127;SDS011;13107;51.304;6.866;2023-03-26T09:05:02;9.80;;;2.30;;
25127;SDS011;13107;51.304;6.866;2023-03-26T09:09:51;8.50;;;1.95;;
25127;SDS011;13107;51.304;6.866;2023-03-26T09:18:42;6.70;;;1.50;;
25127;SDS011;13107;51.304;6.866;2023-03-26T09:40:27;7.72;;;1.67;;
25127;SDS011;13107;51.304;6.866;2023-03-26T10:06:55;4.87;;;1.00;;
25127;SDS011;13107;51.304;6.866;2023-03-26T10:28:35;2.17;;;0.57;;
25127;SDS011;13107;51.304;6.866;2023-03-26T10:32:58;3.65;;;1.12;;
25127;SDS011;13107;51.304;6.866;2023-03-26T10:37:10;1.87;;;0.98;;
25127;SDS011;13107;51.304;6.866;2023-03-26T10:50:48;2.47;;;0.93;;
25127;SDS011;13107;51.304;6.866;2023-03-26T10:55:13;6.25;;;1.05;;
25127;SDS011;13107;51.304;6.866;2023-03-26T10:59:19;6.60;;;0.93;;
25127;SDS011;13107;51.304;6.866;2023-03-26T11:12:43;3.15;;;0.95;;
25127;SDS011;13107;51.304;6.866;2023-03-26T11:21:38;3.60;;;1.02;;
25127;SDS011;13107;51.304;6.866;2023-03-26T11:34:41;3.80;;;0.85;;
25127;SDS011;13107;51.304;6.866;2023-03-26T11:38:58;1.62;;;0.88;;
25127;SDS011;13107;51.304;6.866;2023-03-26T11:43:05;3.90;;;0.95;;
25127;SDS011;13107;51.304;6.866;2023-03-26T11:47:09;2.25;;;0.65;;
25127;SDS011;13107;51.304;6.866;2023-03-26T11:51:17;5.37;;;0.93;;
25127;SDS011;13107;51.304;6.866;2023-03-26T11:55:29;2.10;;;0.90;;
25127;SDS011;13107;51.304;6.866;2023-03-26T12:04:24;1.27;;;0.57;;
25127;SDS011;13107;51.304;6.866;2023-03-26T12:08:32;2.03;;;0.50;;
25127;SDS011;13107;51.304;6.866;2023-03-26T12:12:39;1.62;;;0.57;;
25127;SDS011;13107;51.304;6.866;2023-03-26T12:17:02;1.33;;;0.52;;
25127;SDS011;13107;51.304;6.866;2023-03-26T12:21:10;1.10;;;0.47;;
25127;SDS011;13107;51.304;6.866;2023-03-26T12:25:16;1.80;;;1.12;;
25127;SDS011;13107;51.304;6.866;2023-03-26T12:29:22;2.30;;;1.00;;
25127;SDS011;13107;51.304;6.866;2023-03-26T12:33:25;2.95;;;0.70;;
25127;SDS011;13107;51.304;6.866;2023-03-26T12:37:33;1.50;;;0.70;;
25127;SDS011;13107;51.304;6.866;2023-03-26T12:41:41;1.17;;;0.50;;
25127;SDS011;13107;51.304;6.866;2023-03-26T12:46:08;3.67;;;0.47;;
25127;SDS011;13107;51.304;6.866;2023-03-26T12:55:21;1.17;;;0.35;;
25127;SDS011;13107;51.304;6.866;2023-03-26T12:59:37;1.17;;;0.47;;
25127;SDS011;13107;51.304;6.866;2023-03-26T13:04:16;1.10;;;0.52;;
25127;SDS011;13107;51.304;6.866;2023-03-26T13:13:06;2.05;;;0.50;;
25127;SDS011;13107;51.304;6.866;2023-03-26T13:17:29;6.05;;;2.15;;
25127;SDS011;13107;51.304;6.866;2023-03-26T13:26:12;2.53;;;1.70;;
25127;SDS011;13107;51.304;6.866;2023-03-26T13:35:00;2.80;;;1.95;;
25127;SDS011;13107;51.304;6.866;2023-03-26T13:48:23;1.33;;;0.40;;
25127;SDS011;13107;51.304;6.866;2023-03-26T13:52:42;0.60;;;0.30;;
25127;SDS011;13107;51.304;6.866;2023-03-26T13:56:51;2.37;;;1.02;;
25127;SDS011;13107;51.304;6.866;2023-03-26T14:01:09;1.90;;;0.73;;
25127;SDS011;13107;51.304;6.866;2023-03-26T14:05:27;1.42;;;0.90;;
25127;SDS011;13107;51.304;6.866;2023-03-26T14:14:01;0.43;;;0.32;;
25127;SDS011;13107;51.304;6.866;2023-03-26T14:22:22;0.40;;;0.30;;
25127;SDS011;13107;51.304;6.866;2023-03-26T14:26:42;2.20;;;0.30;;
25127;SDS011;13107;51.304;6.866;2023-03-26T14:39:33;2.12;;;0.52;;
25127;SDS011;13107;51.304;6.866;2023-03-26T14:57:31;2.58;;;0.80;;
25127;SDS011;13107;51.304;6.866;2023-03-26T15:45:31;3.58;;;1.27;;
25127;SDS011;13107;51.304;6.866;2023-03-26T15:58:41;4.47;;;1.98;;
25127;SDS011;13107;51.304;6.866;2023-03-26T16:07:22;3.90;;;1.73;;
25127;SDS011;13107;51.304;6.866;2023-03-26T16:11:41;4.05;;;2.17;;
25127;SDS011;13107;51.304;6.866;2023-03-26T16:20:21;3.97;;;1.83;;
25127;SDS011;13107;51.304;6.866;2023-03-26T16:24:33;5.10;;;1.70;;
25127;SDS011;13107;51.304;6.866;2023-03-26T16:32:53;6.15;;;2.80;;
25127;SDS011;13107;51.304;6.866;2023-03-26T16:36:58;5.78;;;2.65;;
25127;SDS011;13107;51.304;6.866;2023-03-26T16:41:16;9.32;;;4.20;;
25127;SDS011;13107;51.304;6.866;2023-03-26T16:54:23;19.25;;;8.45;;
25127;SDS011;13107;51.304;6.866;2023-03-26T17:07:40;19.95;;;7.40;;
25127;SDS011;13107;51.304;6.866;2023-03-26T17:11:55;26.62;;;8.25;;
25127;SDS011;13107;51.304;6.866;2023-03-26T17:16:41;22.10;;;8.75;;
25127;SDS011;13107;51.304;6.866;2023-03-26T17:33:49;19.80;;;4.90;;
25127;SDS011;13107;51.304;6.866;2023-03-26T17:37:52;21.45;;;4.97;;
25127;SDS011;13107;51.304;6.866;2023-03-26T17:41:55;18.95;;;5.10;;
25127;SDS011;13107;51.304;6.866;2023-03-26T17:50:45;26.90;;;5.70;;
25127;SDS011;13107;51.304;6.866;2023-03-26T17:54:54;20.62;;;5.45;;
25127;SDS011;13107;51.304;6.866;2023-03-26T17:58:57;20.90;;;4.82;;
25127;SDS011;13107;51.304;6.866;2023-03-26T18:11:51;19.50;;;5.15;;
25127;SDS011;13107;51.304;6.866;2023-03-26T18:20:18;15.15;;;4.95;;
25127;SDS011;13107;51.304;6.866;2023-03-26T18:24:24;13.68;;;4.00;;
25127;SDS011;13107;51.304;6.866;2023-03-26T18:28:30;15.53;;;4.07;;
25127;SDS011;13107;51.304;6.866;2023-03-26T18:32:45;13.65;;;2.97;;
25127;SDS011;13107;51.304;6.866;2023-03-26T18:36:59;11.27;;;3.08;;
25127;SDS011;13107;51.304;6.866;2023-03-26T18:41:17;14.27;;;3.22;;
25127;SDS011;13107;51.304;6.866;2023-03-26T18:45:31;14.35;;;3.17;;
25127;SDS011;13107;51.304;6.866;2023-03-26T18:49:34;19.70;;;3.80;;
25127;SDS011;13107;51.304;6.866;2023-03-26T18:53:37;11.27;;;2.67;;
25127;SDS011;13107;51.304;6.866;2023-03-26T18:58:04;14.13;;;3.30;;
25127;SDS011;13107;51.304;6.866;2023-03-26T19:02:22;12.02;;;2.17;;
25127;SDS011;13107;51.304;6.866;2023-03-26T19:06:25;13.80;;;2.35;;
25127;SDS011;13107;51.304;6.866;2023-03-26T19:10:28;16.40;;;2.40;;
25127;SDS011;13107;51.304;6.866;2023-03-26T19:14:31;16.60;;;2.47;;
25127;SDS011;13107;51.304;6.866;2023-03-26T19:18:37;10.43;;;2.45;;
25127;SDS011;13107;51.304;6.866;2023-03-26T19:26:46;15.07;;;2.58;;
25127;SDS011;13107;51.304;6.866;2023-03-26T19:30:53;14.00;;;2.35;;
25127;SDS011;13107;51.304;6.866;2023-03-26T19:34:58;16.23;;;2.17;;
25127;SDS011;13107;51.304;6.866;2023-03-26T19:39:10;9.50;;;1.80;;
25127;SDS011;13107;51.304;6.866;2023-03-26T19:43:13;13.60;;;2.45;;
25127;SDS011;13107;51.304;6.866;2023-03-26T19:47:25;15.48;;;3.03;;
25127;SDS011;13107;51.304;6.866;2023-03-26T19:52:01;8.80;;;1.90;;
25127;SDS011;13107;51.304;6.866;2023-03-26T19:56:14;10.88;;;1.90;;
25127;SDS011;13107;51.304;6.866;2023-03-26T20:00:18;10.35;;;2.08;;
25127;SDS011;13107;51.304;6.866;2023-03-26T20:04:20;13.25;;;1.87;;
25127;SDS011;13107;51.304;6.866;2023-03-26T20:08:22;13.55;;;1.77;;
25127;SDS011;13107;51.304;6.866;2023-03-26T20:12:27;14.70;;;1.87;;
25127;SDS011;13107;51.304;6.866;2023-03-26T20:16:29;10.60;;;2.15;;
25127;SDS011;13107;51.304;6.866;2023-03-26T20:20:33;14.77;;;2.15;;
25127;SDS011;13107;51.304;6.866;2023-03-26T20:24:36;8.77;;;1.52;;
25127;SDS011;13107;51.304;6.866;2023-03-26T20:28:38;11.10;;;2.22;;
25127;SDS011;13107;51.304;6.866;2023-03-26T20:32:48;11.75;;;1.58;;
25127;SDS011;13107;51.304;6.866;2023-03-26T20:37:10;11.00;;;1.70;;
25127;SDS011;13107;51.304;6.866;2023-03-26T20:41:13;11.40;;;1.40;;
25127;SDS011;13107;51.304;6.866;2023-03-26T20:45:21;12.63;;;1.60;;
25127;SDS011;13107;51.304;6.866;2023-03-26T20:49:23;9.25;;;1.35;;
25127;SDS011;13107;51.304;6.866;2023-03-26T20:53:25;14.45;;;1.80;;
25127;SDS011;13107;51.304;6.866;2023-03-26T20:57:28;16.48;;;2.28;;
25127;SDS011;13107;51.304;6.866;2023-03-26T21:01:29;13.50;;;1.95;;
25127;SDS011;13107;51.304;6.866;2023-03-26T21:05:31;10.95;;;1.95;;
25127;SDS011;13107;51.304;6.866;2023-03-26T21:09:35;9.00;;;1.73;;
25127;SDS011;13107;51.304;6.866;2023-03-26T21:17:57;10.90;;;1.90;;
25127;SDS011;13107;51.304;6.866;2023-03-26T21:22:11;8.15;;;1.48;;
25127;SDS011;13107;51.304;6.866;2023-03-26T21:26:22;12.82;;;1.73;;
25127;SDS011;13107;51.304;6.866;2023-03-26T21:30:42;11.60;;;1.60;;
25127;SDS011;13107;51.304;6.866;2023-03-26T21:34:44;9.48;;;1.37;;
25127;SDS011;13107;51.304;6.866;2023-03-26T21:38:58;9.25;;;1.50;;
25127;SDS011;13107;51.304;6.866;2023-03-26T21:43:00;12.90;;;2.05;;
25127;SDS011;13107;51.304;6.866;2023-03-26T21:47:02;19.83;;;2.30;;
25127;SDS011;13107;51.304;6.866;2023-03-26T21:51:04;9.40;;;1.62;;
25127;SDS011;13107;51.304;6.866;2023-03-26T21:55:07;19.48;;;1.90;;
25127;SDS011;13107;51.304;6.866;2023-03-26T22:03:23;10.00;;;1.27;;
25127;SDS011;13107;51.304;6.866;2023-03-26T22:11:53;6.20;;;1.52;;
25127;SDS011;13107;51.304;6.866;2023-03-26T22:15:54;11.00;;;1.45;;
25127;SDS011;13107;51.304;6.866;2023-03-26T22:19:57;13.40;;;1.40;;
25127;SDS011;13107;51.304;6.866;2023-03-26T22:24:01;11.32;;;2.22;;
25127;SDS011;13107;51.304;6.866;2023-03-26T22:28:04;6.05;;;1.20;;
25127;SDS011;13107;51.304;6.866;2023-03-26T22:32:06;13.25;;;1.50;;
25127;SDS011;13107;51.304;6.866;2023-03-26T22:36:09;10.55;;;1.37;;
25127;SDS011;13107;51.304;6.866;2023-03-26T22:40:23;10.13;;;1.50;;
25127;SDS011;13107;51.304;6.866;2023-03-26T22:44:25;20.50;;;1.83;;
25127;SDS011;13107;51.304;6.866;2023-03-26T22:48:28;8.32;;;1.10;;
25127;SDS011;13107;51.304;6.866;2023-03-26T22:52:31;11.57;;;1.33;;
25127;SDS011;13107;51.304;6.866;2023-03-26T22:56:33;12.15;;;1.27;;
25127;SDS011;13107;51.304;6.866;2023-03-26T23:00:36;12.77;;;1.60;;
25127;SDS011;13107;51.304;6.866;2023-03-26T23:04:39;10.90;;;1.20;;
25127;SDS011;13107;51.304;6.866;2023-03-26T23:08:42;9.55;;;1.08;;
25127;SDS011;13107;51.304;6.866;2023-03-26T23:12:44;11.52;;;1.40;;
25127;SDS011;13107;51.304;6.866;2023-03-26T23:16:46;13.43;;;1.33;;
25127;SDS011;13107;51.304;6.866;2023-03-26T23:20:51;14.63;;;1.87;;
25127;SDS011;13107;51.304;6.866;2023-03-26T23:24:55;7.85;;;1.20;;
25127;SDS011;13107;51.304;6.866;2023-03-26T23:28:57;15.43;;;1.40;;
25127;SDS011;13107;51.304;6.866;2023-03-26T23:32:59;6.37;;;1.20;;
25127;SDS011;13107;51.304;6.866;2023-03-26T23:37:01;8.52;;;1.10;;
25127;SDS011;13107;51.304;6.866;2023-03-26T23:41:03;16.08;;;1.83;;
25127;SDS011;13107;51.304;6.866;2023-03-26T23:45:06;13.23;;;1.87;;
25127;SDS011;13107;51.304;6.866;2023-03-26T23:49:08;11.12;;;1.30;;
25127;SDS011;13107;51.304;6.866;2023-03-26T23:53:10;11.07;;;2.10;;
25127;SDS011;13107;51.304;6.866;2023-03-26T23:57:12;10.80;;;1.40;;
